createdAt,value
2018-07-04T00:00:19.368Z,9.47
2018-07-04T00:02:58.555Z,10.00
2018-07-04T00:05:37.875Z,8.93
2018-07-04T00:08:17.043Z,9.97
2018-07-04T00:10:56.151Z,9.93
2018-07-04T00:13:35.216Z,10.93
2018-07-04T00:16:14.673Z,9.93
2018-07-04T00:18:53.951Z,11.03
2018-07-04T00:21:33.015Z,11.20
2018-07-04T00:24:12.257Z,10.67
2018-07-04T00:26:51.363Z,10.30
2018-07-04T00:29:30.685Z,10.53
2018-07-04T00:32:09.902Z,9.97
2018-07-04T00:34:48.964Z,10.37
2018-07-04T00:37:28.239Z,10.20
2018-07-04T00:40:07.309Z,11.37
2018-07-04T00:42:46.640Z,10.90
2018-07-04T00:45:25.896Z,11.10
2018-07-04T00:48:05.067Z,11.10
2018-07-04T00:50:44.282Z,9.73
2018-07-04T00:53:23.516Z,11.20
2018-07-04T00:56:02.705Z,10.93
2018-07-04T00:58:41.931Z,10.43
2018-07-04T01:01:22.052Z,11.00
2018-07-04T01:04:01.266Z,11.50
2018-07-04T01:06:40.542Z,10.87
2018-07-04T01:09:19.777Z,9.97
2018-07-04T01:11:59.076Z,10.30
2018-07-04T01:14:38.255Z,9.97
2018-07-04T01:17:17.423Z,10.20
2018-07-04T01:19:56.460Z,9.73
2018-07-04T01:22:35.550Z,10.00
2018-07-04T01:25:14.650Z,9.77
2018-07-04T01:27:53.963Z,10.57
2018-07-04T01:30:33.231Z,10.23
2018-07-04T01:33:12.321Z,10.40
2018-07-04T01:35:51.565Z,9.87
2018-07-04T01:38:30.731Z,10.03
2018-07-04T01:41:09.880Z,10.03
2018-07-04T01:43:49.244Z,9.97
2018-07-04T01:46:28.485Z,9.83
2018-07-04T01:49:07.544Z,10.43
2018-07-04T01:51:46.760Z,11.57
2018-07-04T01:54:25.992Z,10.83
2018-07-04T01:57:05.222Z,11.73
2018-07-04T01:59:44.386Z,10.67
2018-07-04T02:02:23.649Z,11.70
2018-07-04T02:05:02.924Z,12.37
2018-07-04T02:07:42.113Z,11.10
2018-07-04T02:10:21.282Z,10.67
2018-07-04T02:13:00.548Z,11.40
2018-07-04T02:15:39.589Z,11.47
2018-07-04T02:18:18.792Z,11.77
2018-07-04T02:20:58.135Z,10.60
2018-07-04T02:23:37.413Z,11.50
2018-07-04T02:26:16.389Z,11.13
2018-07-04T02:28:55.532Z,11.77
2018-07-04T02:31:34.543Z,10.90
2018-07-04T02:34:13.648Z,12.17
2018-07-04T02:36:52.813Z,11.50
2018-07-04T02:39:31.893Z,11.53
2018-07-04T02:42:11.272Z,11.87
2018-07-04T02:44:50.469Z,11.43
2018-07-04T02:47:29.576Z,10.43
2018-07-04T02:50:09.473Z,10.40
2018-07-04T02:52:48.944Z,11.73
2018-07-04T02:55:28.080Z,12.30
2018-07-04T02:58:08.414Z,10.90
2018-07-04T03:00:47.741Z,10.43
2018-07-04T03:03:27.000Z,11.40
2018-07-04T03:06:06.454Z,11.17
2018-07-04T03:08:45.491Z,10.93
2018-07-04T03:11:24.717Z,11.30
2018-07-04T03:14:04.075Z,11.37
2018-07-04T03:16:43.492Z,11.33
2018-07-04T03:19:22.591Z,11.37
2018-07-04T03:22:01.739Z,10.30
2018-07-04T03:24:40.974Z,11.20
2018-07-04T03:27:20.191Z,10.87
2018-07-04T03:29:59.165Z,10.80
2018-07-04T03:32:38.354Z,9.57
2018-07-04T03:35:17.414Z,11.23
2018-07-04T03:37:56.670Z,10.50
2018-07-04T03:40:35.932Z,10.67
2018-07-04T03:43:14.887Z,10.83
2018-07-04T03:45:54.234Z,9.57
2018-07-04T03:48:33.269Z,10.30
2018-07-04T03:51:12.455Z,10.13
2018-07-04T03:53:51.703Z,10.67
2018-07-04T03:56:31.042Z,9.87
2018-07-04T03:59:10.176Z,11.43
2018-07-04T04:01:49.450Z,9.90
2018-07-04T04:04:28.782Z,10.23
2018-07-04T04:07:08.322Z,10.37
2018-07-04T04:09:47.540Z,10.67
2018-07-04T04:12:26.632Z,10.80
2018-07-04T04:15:05.985Z,10.17
2018-07-04T04:17:45.404Z,11.33
2018-07-04T04:20:24.610Z,12.83
2018-07-04T04:23:04.085Z,11.63
2018-07-04T04:25:43.477Z,11.93
2018-07-04T04:28:22.800Z,12.33
2018-07-04T04:31:02.019Z,12.53
2018-07-04T04:33:41.054Z,11.60
2018-07-04T04:36:20.482Z,12.33
2018-07-04T04:38:59.755Z,12.10
2018-07-04T04:41:39.088Z,12.10
2018-07-04T04:44:18.341Z,12.07
2018-07-04T04:46:57.735Z,12.37
2018-07-04T04:49:36.832Z,11.87
2018-07-04T04:52:16.150Z,11.97
2018-07-04T04:54:55.458Z,11.33
2018-07-04T04:57:34.650Z,11.20
2018-07-04T05:00:13.853Z,11.57
2018-07-04T05:02:53.098Z,12.13
2018-07-04T05:05:32.626Z,12.37
2018-07-04T05:08:11.936Z,11.40
2018-07-04T05:10:51.551Z,12.20
2018-07-04T05:13:30.963Z,12.10
2018-07-04T05:16:10.164Z,12.00
2018-07-04T05:18:49.402Z,12.63
2018-07-04T05:21:28.663Z,12.07
2018-07-04T05:24:07.969Z,12.90
2018-07-04T05:26:47.333Z,13.57
2018-07-04T05:29:26.489Z,14.63
2018-07-04T05:32:05.624Z,13.83
2018-07-04T05:34:45.102Z,15.50
2018-07-04T05:37:24.419Z,14.60
2018-07-04T05:40:03.904Z,13.17
2018-07-04T05:42:43.255Z,13.40
2018-07-04T05:45:22.551Z,14.57
2018-07-04T05:48:02.310Z,12.77
2018-07-04T05:50:41.518Z,14.33
2018-07-04T05:53:20.745Z,13.57
2018-07-04T05:56:00.274Z,12.83
2018-07-04T05:58:39.472Z,12.40
2018-07-04T06:01:18.899Z,11.50
2018-07-04T06:03:58.577Z,11.03
2018-07-04T06:06:37.963Z,11.43
2018-07-04T06:09:17.225Z,11.77
2018-07-04T06:11:56.840Z,11.13
2018-07-04T06:17:20.785Z,11.50
2018-07-04T06:20:00.029Z,12.70
2018-07-04T06:22:39.382Z,11.87
2018-07-04T06:25:18.378Z,10.90
2018-07-04T06:27:57.737Z,11.47
2018-07-04T06:30:37.004Z,11.50
2018-07-04T06:33:16.387Z,11.22
2018-07-04T06:35:55.754Z,10.70
2018-07-04T06:38:22.708Z,10.67
2018-07-04T06:40:49.709Z,11.55
2018-07-04T06:43:16.845Z,10.93
2018-07-04T06:45:43.633Z,12.50
2018-07-04T06:48:10.671Z,11.73
2018-07-04T06:50:37.656Z,10.63
2018-07-04T06:53:04.733Z,10.70
2018-07-04T06:55:31.523Z,11.18
2018-07-04T06:57:58.421Z,11.48
2018-07-04T07:00:25.498Z,12.20
2018-07-04T07:03:05.063Z,10.80
2018-07-04T07:05:44.379Z,10.78
2018-07-04T07:08:24.120Z,11.48
2018-07-04T07:11:03.376Z,11.45
2018-07-04T07:13:43.134Z,12.18
2018-07-04T07:16:22.589Z,11.38
2018-07-04T07:19:01.913Z,11.97
2018-07-04T07:21:41.525Z,12.05
2018-07-04T07:24:20.964Z,11.22
2018-07-04T07:27:00.582Z,11.43
2018-07-04T07:29:39.857Z,11.90
2018-07-04T07:32:19.191Z,12.53
2018-07-04T07:34:58.518Z,11.60
2018-07-04T07:37:37.995Z,10.88
2018-07-04T07:40:17.298Z,10.30
2018-07-04T07:42:56.494Z,11.00
2018-07-04T07:45:35.826Z,11.30
2018-07-04T07:48:15.108Z,12.40
2018-07-04T07:50:54.487Z,12.93
2018-07-04T07:53:33.788Z,12.33
2018-07-04T07:56:13.096Z,11.73
2018-07-04T07:58:52.984Z,11.93
2018-07-04T08:01:32.506Z,10.68
2018-07-04T08:04:14.270Z,10.40
2018-07-04T08:06:53.881Z,12.13
2018-07-04T08:09:33.443Z,11.53
2018-07-04T08:12:13.107Z,10.82
2018-07-04T08:14:52.503Z,11.33
2018-07-04T08:17:31.651Z,11.40
2018-07-04T08:20:10.952Z,11.43
2018-07-04T08:22:51.010Z,11.93
2018-07-04T08:25:30.539Z,12.03
2018-07-04T08:28:09.782Z,11.57
2018-07-04T08:30:49.022Z,11.33
2018-07-04T08:33:28.249Z,11.30
2018-07-04T08:36:07.677Z,12.03
2018-07-04T08:38:47.070Z,11.45
2018-07-04T08:41:26.172Z,11.03
2018-07-04T08:44:05.469Z,11.60
2018-07-04T08:46:44.709Z,11.22
2018-07-04T08:49:24.006Z,11.08
2018-07-04T08:52:03.332Z,10.65
2018-07-04T08:54:42.649Z,10.15
2018-07-04T08:57:22.134Z,11.20
2018-07-04T09:00:01.801Z,11.05
2018-07-04T09:02:41.397Z,10.38
2018-07-04T09:05:20.706Z,11.20
2018-07-04T09:08:00.288Z,10.23
2018-07-04T09:10:39.797Z,9.33
2018-07-04T09:13:19.273Z,9.28
2018-07-04T09:15:58.797Z,10.65
2018-07-04T09:18:38.539Z,9.73
2018-07-04T09:21:17.847Z,11.28
2018-07-04T09:23:57.124Z,10.38
2018-07-04T09:26:36.344Z,11.08
2018-07-04T09:29:15.648Z,10.70
2018-07-04T09:31:54.887Z,10.95
2018-07-04T09:34:34.518Z,11.00
2018-07-04T09:37:14.023Z,10.82
2018-07-04T09:39:53.666Z,10.05
2018-07-04T09:42:33.079Z,10.38
2018-07-04T09:45:12.211Z,9.78
2018-07-04T09:47:51.514Z,10.38
2018-07-04T09:50:30.780Z,10.18
2018-07-04T09:53:10.024Z,9.23
2018-07-04T09:55:49.344Z,9.08
2018-07-04T09:58:28.695Z,10.30
2018-07-04T10:01:13.374Z,9.08
2018-07-04T10:03:52.917Z,9.28
2018-07-04T10:06:32.234Z,9.08
2018-07-04T10:09:11.689Z,8.75
2018-07-04T10:11:51.042Z,10.08
2018-07-04T10:14:30.665Z,9.35
2018-07-04T10:17:10.167Z,10.00
2018-07-04T10:19:49.573Z,8.58
2018-07-04T10:22:28.716Z,9.55
2018-07-04T10:25:08.284Z,8.83
2018-07-04T10:27:47.653Z,8.20
2018-07-04T10:30:26.921Z,9.15
2018-07-04T10:33:06.264Z,8.40
2018-07-04T10:35:46.027Z,8.78
2018-07-04T10:38:25.485Z,10.00
2018-07-04T10:41:05.097Z,9.25
2018-07-04T10:43:44.506Z,9.73
2018-07-04T10:46:23.904Z,9.60
2018-07-04T10:49:03.377Z,9.30
2018-07-04T10:51:42.652Z,8.18
2018-07-04T10:54:21.972Z,8.68
2018-07-04T10:57:01.173Z,8.73
2018-07-04T10:59:40.371Z,9.30
2018-07-04T11:02:19.517Z,9.75
2018-07-04T11:04:58.778Z,9.80
2018-07-04T11:07:38.044Z,10.72
2018-07-04T11:10:17.336Z,10.65
2018-07-04T11:12:56.876Z,9.80
2018-07-04T11:15:36.535Z,10.48
2018-07-04T11:18:15.989Z,10.70
2018-07-04T11:20:55.199Z,10.43
2018-07-04T11:23:34.438Z,11.30
2018-07-04T11:26:13.647Z,10.93
2018-07-04T11:28:53.205Z,10.93
2018-07-04T11:31:32.663Z,11.33
2018-07-04T11:34:12.111Z,12.13
2018-07-04T11:36:51.507Z,11.83
2018-07-04T11:39:30.763Z,11.38
2018-07-04T11:42:10.029Z,10.55
2018-07-04T11:44:49.442Z,10.95
2018-07-04T11:47:16.295Z,11.05
2018-07-04T11:49:43.146Z,11.50
2018-07-04T11:52:10.052Z,10.90
2018-07-04T11:54:36.946Z,10.82
2018-07-04T11:57:03.790Z,10.75
2018-07-04T11:59:30.601Z,11.25
2018-07-04T12:01:57.365Z,10.80
2018-07-04T12:04:36.739Z,10.78
2018-07-04T12:07:06.932Z,10.65
2018-07-04T12:09:34.908Z,10.08
2018-07-04T12:12:01.885Z,10.65
2018-07-04T12:14:29.263Z,10.70
2018-07-04T12:16:56.461Z,10.68
2018-07-04T12:19:23.719Z,10.40
2018-07-04T12:21:50.739Z,10.55
2018-07-04T12:24:17.699Z,9.78
2018-07-04T12:26:44.603Z,10.25
2018-07-04T12:29:11.932Z,9.53
2018-07-04T12:31:39.527Z,10.23
2018-07-04T12:34:06.523Z,10.30
2018-07-04T12:36:33.800Z,9.65
2018-07-04T12:39:01.289Z,9.53
2018-07-04T12:41:28.523Z,9.43
2018-07-04T12:43:55.389Z,8.15
2018-07-04T12:46:22.360Z,8.35
2018-07-04T12:48:49.253Z,7.67
2018-07-04T12:51:16.354Z,7.00
2018-07-04T12:53:43.281Z,6.30
2018-07-04T12:56:22.630Z,6.03
2018-07-04T12:59:01.991Z,5.00
2018-07-04T13:01:41.361Z,5.60
2018-07-04T13:04:20.918Z,5.35
2018-07-04T13:07:00.319Z,4.80
2018-07-04T13:09:39.645Z,5.30
2018-07-04T13:12:19.041Z,4.72
2018-07-04T13:14:58.442Z,4.53
2018-07-04T13:17:37.693Z,5.15
2018-07-04T13:20:17.444Z,4.50
2018-07-04T13:22:56.790Z,5.17
2018-07-04T13:25:36.771Z,4.83
2018-07-04T13:28:16.503Z,5.33
2018-07-04T13:30:56.919Z,5.40
2018-07-04T13:33:36.278Z,5.03
2018-07-04T13:36:15.701Z,5.17
2018-07-04T13:38:55.532Z,5.40
2018-07-04T13:41:35.135Z,5.08
2018-07-04T13:44:14.441Z,5.12
2018-07-04T13:46:53.807Z,4.42
2018-07-04T13:49:33.116Z,4.50
2018-07-04T13:52:12.306Z,3.72
2018-07-04T13:54:51.724Z,3.98
2018-07-04T13:57:31.250Z,3.52
2018-07-04T14:00:10.733Z,3.30
2018-07-04T14:02:50.318Z,3.15
2018-07-04T14:05:29.738Z,3.80
2018-07-04T14:08:09.215Z,3.50
2018-07-04T14:10:48.678Z,3.30
2018-07-04T14:13:28.119Z,3.30
2018-07-04T14:16:07.617Z,3.22
2018-07-04T14:18:47.001Z,2.70
2018-07-04T14:21:27.449Z,3.25
2018-07-04T14:24:06.790Z,2.95
2018-07-04T14:26:46.184Z,3.40
2018-07-04T14:29:25.694Z,3.80
2018-07-04T14:32:05.352Z,3.60
2018-07-04T14:34:44.868Z,3.45
2018-07-04T14:37:24.571Z,3.60
2018-07-04T14:40:03.854Z,3.75
2018-07-04T14:42:43.282Z,3.45
2018-07-04T14:45:22.642Z,3.67
2018-07-04T14:48:02.000Z,4.70
2018-07-04T14:50:41.276Z,4.10
2018-07-04T14:53:20.452Z,4.97
2018-07-04T14:55:59.764Z,4.37
2018-07-04T14:58:39.225Z,4.45
2018-07-04T15:01:18.608Z,5.15
2018-07-04T15:03:57.793Z,4.87
2018-07-04T15:06:36.929Z,4.42
2018-07-04T15:09:16.223Z,4.60
2018-07-04T15:11:55.587Z,5.35
2018-07-04T15:14:34.719Z,4.47
2018-07-04T15:17:14.141Z,4.42
2018-07-04T15:19:53.439Z,5.50
2018-07-04T15:22:32.595Z,4.92
2018-07-04T15:25:11.754Z,5.28
2018-07-04T15:27:51.341Z,6.33
2018-07-04T15:30:30.621Z,6.30
2018-07-04T15:33:10.277Z,7.75
2018-07-04T15:35:49.426Z,7.97
2018-07-04T15:38:28.733Z,7.60
2018-07-04T15:41:08.184Z,7.65
2018-07-04T15:43:47.576Z,7.50
2018-07-04T15:46:26.617Z,8.23
2018-07-04T15:49:05.916Z,8.10
2018-07-04T15:51:45.185Z,9.95
2018-07-04T15:54:24.373Z,7.45
2018-07-04T15:57:03.621Z,8.45
2018-07-04T15:59:42.856Z,8.23
2018-07-04T16:02:22.171Z,7.33
2018-07-04T16:05:01.345Z,7.47
2018-07-04T16:07:40.502Z,6.77
2018-07-04T16:10:19.807Z,5.77
2018-07-04T16:12:58.872Z,6.80
2018-07-04T16:15:38.120Z,6.90
2018-07-04T16:18:17.557Z,6.00
2018-07-04T16:20:56.984Z,5.93
2018-07-04T16:23:36.560Z,6.80
2018-07-04T16:26:16.160Z,6.40
2018-07-04T16:28:55.553Z,6.80
2018-07-04T16:31:35.230Z,6.73
2018-07-04T16:34:14.592Z,6.20
2018-07-04T16:36:53.845Z,6.90
2018-07-04T16:39:33.383Z,7.13
2018-07-04T16:42:13.145Z,6.50
2018-07-04T16:44:52.625Z,7.40
2018-07-04T16:47:32.183Z,6.33
2018-07-04T16:50:11.542Z,7.00
2018-07-04T16:52:51.178Z,7.60
2018-07-04T16:55:30.905Z,7.17
2018-07-04T16:58:10.364Z,7.30
2018-07-04T17:00:49.826Z,7.20
2018-07-04T17:03:29.182Z,7.70
2018-07-04T17:06:09.230Z,7.17
2018-07-04T17:08:48.657Z,7.97
2018-07-04T17:11:28.288Z,7.80
2018-07-04T17:14:08.108Z,7.83
2018-07-04T17:16:47.311Z,7.13
2018-07-04T17:19:26.532Z,7.40
2018-07-04T17:22:05.750Z,8.03
2018-07-04T17:24:45.140Z,8.17
2018-07-04T17:27:24.380Z,7.43
2018-07-04T17:30:03.907Z,7.47
2018-07-04T17:32:43.437Z,7.47
2018-07-04T17:35:22.770Z,7.10
2018-07-04T17:38:02.656Z,6.73
2018-07-04T17:40:42.059Z,7.20
2018-07-04T17:43:21.554Z,7.47
2018-07-04T17:46:00.982Z,6.97
2018-07-04T17:48:40.606Z,7.07
2018-07-04T17:51:19.904Z,6.70
2018-07-04T17:53:59.263Z,6.90
2018-07-04T17:56:38.634Z,7.13
2018-07-04T17:59:18.007Z,6.73
2018-07-04T18:01:57.453Z,6.90
2018-07-04T18:04:36.766Z,6.70
2018-07-04T18:07:16.217Z,6.80
2018-07-04T18:09:55.672Z,7.63
2018-07-04T18:12:35.136Z,5.90
2018-07-04T18:15:14.632Z,5.97
2018-07-04T18:17:53.912Z,5.53
2018-07-04T18:20:33.082Z,5.10
2018-07-04T18:23:12.466Z,5.07
2018-07-04T18:25:51.730Z,5.73
2018-07-04T18:28:31.175Z,6.00
2018-07-04T18:31:10.506Z,6.13
2018-07-04T18:33:50.894Z,5.87
2018-07-04T18:36:30.500Z,6.60
2018-07-04T18:39:09.991Z,5.27
2018-07-04T18:41:49.419Z,6.00
2018-07-04T18:44:28.898Z,5.53
2018-07-04T18:47:08.385Z,5.57
2018-07-04T18:49:47.981Z,5.37
2018-07-04T18:52:28.676Z,5.27
2018-07-04T18:55:08.200Z,5.20
2018-07-04T18:57:48.729Z,5.00
2018-07-04T19:00:28.007Z,5.33
2018-07-04T19:03:07.295Z,5.20
2018-07-04T19:05:46.490Z,5.27
2018-07-04T19:08:25.955Z,4.97
2018-07-04T19:11:05.400Z,4.57
2018-07-04T19:13:44.588Z,5.33
2018-07-04T19:16:24.674Z,5.33
2018-07-04T19:19:03.854Z,5.10
2018-07-04T19:21:43.369Z,5.00
2018-07-04T19:24:22.813Z,5.10
2018-07-04T19:27:02.195Z,6.03
2018-07-04T19:29:41.679Z,6.00
2018-07-04T19:32:22.109Z,5.83
2018-07-04T19:35:01.249Z,5.87
2018-07-04T19:37:40.301Z,5.10
2018-07-04T19:40:19.719Z,5.37
2018-07-04T19:42:59.145Z,5.80
2018-07-04T19:45:38.439Z,5.63
2018-07-04T19:48:17.855Z,4.80
2018-07-04T19:50:57.341Z,5.23
2018-07-04T19:53:36.728Z,4.77
2018-07-04T19:56:16.105Z,5.53
2018-07-04T19:58:55.624Z,4.90
2018-07-04T20:01:35.191Z,5.43
2018-07-04T20:04:14.983Z,4.67
2018-07-04T20:06:54.689Z,5.77
2018-07-04T20:09:33.951Z,5.30
2018-07-04T20:12:13.245Z,5.23
2018-07-04T20:14:52.558Z,4.80
2018-07-04T20:17:31.734Z,6.03
2018-07-04T20:20:11.066Z,5.57
2018-07-04T20:22:50.175Z,5.70
2018-07-04T20:25:29.495Z,5.50
2018-07-04T20:28:08.771Z,5.57
2018-07-04T20:30:48.166Z,5.83
2018-07-04T20:33:27.337Z,5.60
2018-07-04T20:36:06.646Z,6.00
2018-07-04T20:38:45.836Z,5.53
2018-07-04T20:41:25.172Z,5.90
2018-07-04T20:44:04.427Z,5.37
2018-07-04T20:46:43.757Z,5.13
2018-07-04T20:49:22.961Z,5.77
2018-07-04T20:52:02.133Z,5.30
2018-07-04T20:54:41.301Z,5.70
2018-07-04T20:57:20.566Z,5.03
2018-07-04T20:59:59.773Z,5.40
2018-07-04T21:02:39.039Z,5.40
2018-07-04T21:05:18.215Z,5.43
2018-07-04T21:07:57.579Z,5.87
2018-07-04T21:10:36.770Z,5.90
2018-07-04T21:13:16.134Z,5.90
2018-07-04T21:15:55.115Z,6.40
2018-07-04T21:18:34.411Z,5.87
2018-07-04T21:21:13.426Z,5.00
2018-07-04T21:23:52.775Z,5.97
2018-07-04T21:26:32.032Z,6.03
2018-07-04T21:29:11.326Z,5.50
2018-07-04T21:31:50.403Z,5.63
2018-07-04T21:34:29.572Z,5.20
2018-07-04T21:37:09.369Z,5.97
2018-07-04T21:39:48.756Z,5.73
2018-07-04T21:42:27.929Z,5.43
2018-07-04T21:45:07.555Z,5.40
2018-07-04T21:47:46.851Z,5.27
2018-07-04T21:50:26.084Z,5.63
2018-07-04T21:53:05.315Z,5.63
2018-07-04T21:55:44.544Z,5.40
2018-07-04T21:58:23.976Z,5.60
2018-07-04T22:01:03.269Z,6.10
2018-07-04T22:03:42.368Z,5.10
2018-07-04T22:06:21.531Z,5.30
2018-07-04T22:09:00.545Z,5.47
2018-07-04T22:11:39.757Z,4.77
2018-07-04T22:14:18.896Z,4.93
2018-07-04T22:16:58.157Z,5.27
2018-07-04T22:19:37.312Z,5.30
2018-07-04T22:22:16.583Z,5.63
2018-07-04T22:24:55.818Z,5.43
2018-07-04T22:27:34.970Z,5.17
2018-07-04T22:30:14.110Z,5.00
2018-07-04T22:32:53.441Z,5.97
2018-07-04T22:35:32.733Z,5.77
2018-07-04T22:38:11.921Z,5.20
2018-07-04T22:40:51.151Z,5.13
2018-07-04T22:43:30.517Z,5.47
2018-07-04T22:46:09.635Z,5.27
2018-07-04T22:48:49.739Z,5.23
2018-07-04T22:51:29.102Z,4.83
2018-07-04T22:54:08.312Z,5.43
2018-07-04T22:56:47.492Z,4.90
2018-07-04T22:59:26.779Z,5.33
2018-07-04T23:02:06.114Z,5.30
2018-07-04T23:04:45.359Z,4.83
2018-07-04T23:07:24.435Z,5.63
2018-07-04T23:10:03.791Z,5.00
2018-07-04T23:12:43.113Z,5.33
2018-07-04T23:15:22.476Z,5.53
2018-07-04T23:18:01.511Z,5.43
2018-07-04T23:20:40.653Z,5.43
2018-07-04T23:23:19.866Z,5.23
2018-07-04T23:25:59.277Z,5.40
2018-07-04T23:28:38.492Z,5.43
2018-07-04T23:31:17.787Z,6.03
2018-07-04T23:33:57.047Z,4.90
2018-07-04T23:36:36.339Z,5.80
2018-07-04T23:39:15.477Z,6.10
2018-07-04T23:41:54.588Z,6.27
2018-07-04T23:44:33.743Z,6.03
2018-07-04T23:47:12.865Z,5.90
2018-07-04T23:49:52.035Z,5.80
2018-07-04T23:52:31.293Z,5.10
2018-07-04T23:55:10.503Z,5.80
2018-07-04T23:57:49.513Z,5.73
